sensor_id;sensor_type;location;lat;lon;timestamp;pressure;altitude;pressure_sealevel;temperature;humidity
18784;BME280;9520;50.954;6.968;2023-01-25T00:00:21;103013.22;;;9.36;44.56
18784;BME280;9520;50.954;6.968;2023-01-25T00:00:43;103066.69;;;9.65;44.40
18784;BME280;9520;50.954;6.968;2023-01-25T00:01:05;103061.47;;;9.68;44.49
18784;BME280;9520;50.954;6.968;2023-01-25T00:01:27;103056.31;;;9.71;44.52
18784;BME280;9520;50.954;6.968;2023-01-25T00:01:50;103059.84;;;9.73;44.48
18784;BME280;9520;50.954;6.968;2023-01-25T00:02:12;103060.81;;;9.75;44.56
18784;BME280;9520;50.954;6.968;2023-01-25T00:02:34;103058.25;;;9.78;44.51
18784;BME280;9520;50.954;6.968;2023-01-25T00:02:57;103064.47;;;9.80;44.22
18784;BME280;9520;50.954;6.968;2023-01-25T00:03:20;103060.94;;;9.79;44.34
18784;BME280;9520;50.954;6.968;2023-01-25T00:03:42;103051.31;;;9.81;44.49
18784;BME280;9520;50.954;6.968;2023-01-25T00:04:04;103059.31;;;9.84;44.25
18784;BME280;9520;50.954;6.968;2023-01-25T00:04:26;103049.50;;;9.79;44.18
18784;BME280;9520;50.954;6.968;2023-01-25T00:04:49;103051.41;;;9.84;44.39
18784;BME280;9520;50.954;6.968;2023-01-25T00:05:13;103057.63;;;9.86;44.34
18784;BME280;9520;50.954;6.968;2023-01-25T00:05:35;103046.19;;;9.87;44.15
18784;BME280;9520;50.954;6.968;2023-01-25T00:05:59;103043.50;;;9.84;44.14
18784;BME280;9520;50.954;6.968;2023-01-25T00:06:23;103046.19;;;9.86;44.08
18784;BME280;9520;50.954;6.968;2023-01-25T00:06:45;103050.72;;;9.91;44.19
18784;BME280;9520;50.954;6.968;2023-01-25T00:07:07;103056.91;;;9.93;44.11
18784;BME280;9520;50.954;6.968;2023-01-25T00:07:29;103050.72;;;9.91;44.20
18784;BME280;9520;50.954;6.968;2023-01-25T00:07:52;103048.94;;;9.90;44.09
18784;BME280;9520;50.954;6.968;2023-01-25T00:08:17;103053.47;;;9.96;44.12
18784;BME280;9520;50.954;6.968;2023-01-25T00:08:38;103051.63;;;9.93;44.08
18784;BME280;9520;50.954;6.968;2023-01-25T00:09:00;103046.31;;;9.92;43.99
18784;BME280;9520;50.954;6.968;2023-01-25T00:09:24;103048.22;;;9.97;44.04
18784;BME280;9520;50.954;6.968;2023-01-25T00:09:46;103051.75;;;9.98;43.84
18784;BME280;9520;50.954;6.968;2023-01-25T00:10:09;103048.31;;;10.01;43.93
18784;BME280;9520;50.954;6.968;2023-01-25T00:10:32;103045.50;;;9.94;43.92
18784;BME280;9520;50.954;6.968;2023-01-25T00:10:53;103046.41;;;9.95;43.86
18784;BME280;9520;50.954;6.968;2023-01-25T00:11:18;103045.44;;;9.91;43.96
18784;BME280;9520;50.954;6.968;2023-01-25T00:11:42;103048.94;;;9.92;43.91
18784;BME280;9520;50.954;6.968;2023-01-25T00:12:04;103054.22;;;9.92;43.96
18784;BME280;9520;50.954;6.968;2023-01-25T00:12:27;103051.56;;;9.92;43.88
18784;BME280;9520;50.954;6.968;2023-01-25T00:12:49;103043.66;;;9.90;43.95
18784;BME280;9520;50.954;6.968;2023-01-25T00:13:11;103044.44;;;9.88;44.13
18784;BME280;9520;50.954;6.968;2023-01-25T00:13:33;103043.59;;;9.89;44.12
18784;BME280;9520;50.954;6.968;2023-01-25T00:13:56;103048.94;;;9.90;44.13
18784;BME280;9520;50.954;6.968;2023-01-25T00:14:18;103043.59;;;9.89;44.27
18784;BME280;9520;50.954;6.968;2023-01-25T00:14:40;103049.81;;;9.91;44.14
18784;BME280;9520;50.954;6.968;2023-01-25T00:15:02;103054.16;;;9.89;44.07
18784;BME280;9520;50.954;6.968;2023-01-25T00:15:26;103049.81;;;9.91;44.01
18784;BME280;9520;50.954;6.968;2023-01-25T00:15:47;103052.28;;;9.85;44.03
18784;BME280;9520;50.954;6.968;2023-01-25T00:16:09;103061.09;;;9.85;44.12
18784;BME280;9520;50.954;6.968;2023-01-25T00:16:31;103047.94;;;9.87;44.06
18784;BME280;9520;50.954;6.968;2023-01-25T00:16:53;103056.00;;;9.91;44.00
18784;BME280;9520;50.954;6.968;2023-01-25T00:17:16;103052.47;;;9.91;43.99
18784;BME280;9520;50.954;6.968;2023-01-25T00:17:38;103051.63;;;9.93;43.89
18784;BME280;9520;50.954;6.968;2023-01-25T00:18:00;103043.78;;;9.95;43.89
18784;BME280;9520;50.954;6.968;2023-01-25T00:18:22;103049.94;;;9.95;43.97
18784;BME280;9520;50.954;6.968;2023-01-25T00:18:45;103048.19;;;9.96;43.87
18784;BME280;9520;50.954;6.968;2023-01-25T00:19:08;103054.38;;;9.98;43.81
18784;BME280;9520;50.954;6.968;2023-01-25T00:19:30;103047.38;;;9.98;43.96
18784;BME280;9520;50.954;6.968;2023-01-25T00:19:52;103052.63;;;9.98;43.83
18784;BME280;9520;50.954;6.968;2023-01-25T00:20:17;103042.03;;;9.97;43.84
18784;BME280;9520;50.954;6.968;2023-01-25T00:20:39;103051.75;;;9.98;43.86
18784;BME280;9520;50.954;6.968;2023-01-25T00:21:10;103043.00;;;9.99;43.79
18784;BME280;9520;50.954;6.968;2023-01-25T00:21:32;103043.72;;;9.93;43.95
18784;BME280;9520;50.954;6.968;2023-01-25T00:21:57;103050.84;;;9.96;43.87
18784;BME280;9520;50.954;6.968;2023-01-25T00:22:19;103042.03;;;9.95;43.83
18784;BME280;9520;50.954;6.968;2023-01-25T00:22:41;103046.47;;;9.98;43.89
18784;BME280;9520;50.954;6.968;2023-01-25T00:23:04;103050.06;;;10.00;43.76
18784;BME280;9520;50.954;6.968;2023-01-25T00:23:26;103054.44;;;10.00;43.76
18784;BME280;9520;50.954;6.968;2023-01-25T00:23:48;103036.66;;;9.92;43.72
18784;BME280;9520;50.954;6.968;2023-01-25T00:24:10;103045.63;;;9.99;43.76
18784;BME280;9520;50.954;6.968;2023-01-25T00:24:32;103045.75;;;10.04;43.70
18784;BME280;9520;50.954;6.968;2023-01-25T00:24:54;103040.41;;;10.02;43.76
18784;BME280;9520;50.954;6.968;2023-01-25T00:25:17;103048.41;;;10.05;43.67
18784;BME280;9520;50.954;6.968;2023-01-25T00:25:39;103047.56;;;10.06;43.71
18784;BME280;9520;50.954;6.968;2023-01-25T00:26:01;103043.22;;;10.08;43.72
18784;BME280;9520;50.954;6.968;2023-01-25T00:26:23;103043.16;;;10.07;43.71
18784;BME280;9520;50.954;6.968;2023-01-25T00:26:44;103041.47;;;10.09;43.70
18784;BME280;9520;50.954;6.968;2023-01-25T00:27:07;103037.94;;;10.08;43.83
18784;BME280;9520;50.954;6.968;2023-01-25T00:27:29;103045.00;;;10.09;43.78
18784;BME280;9520;50.954;6.968;2023-01-25T00:27:51;103040.63;;;10.10;43.61
18784;BME280;9520;50.954;6.968;2023-01-25T00:28:13;103033.50;;;10.06;43.66
18784;BME280;9520;50.954;6.968;2023-01-25T00:28:36;103040.63;;;10.10;43.84
18784;BME280;9520;50.954;6.968;2023-01-25T00:29:00;103042.31;;;10.08;44.02
18784;BME280;9520;50.954;6.968;2023-01-25T00:29:22;103045.06;;;10.11;43.96
18784;BME280;9520;50.954;6.968;2023-01-25T00:29:43;103035.34;;;10.10;44.08
18784;BME280;9520;50.954;6.968;2023-01-25T00:30:06;103038.94;;;10.13;44.22
18784;BME280;9520;50.954;6.968;2023-01-25T00:30:29;103038.94;;;10.13;43.94
18784;BME280;9520;50.954;6.968;2023-01-25T00:30:51;103038.06;;;10.13;43.93
18784;BME280;9520;50.954;6.968;2023-01-25T00:31:16;103035.53;;;10.16;43.95
18784;BME280;9520;50.954;6.968;2023-01-25T00:31:48;103038.03;;;10.11;43.85
18784;BME280;9520;50.954;6.968;2023-01-25T00:32:28;103032.75;;;10.11;43.93
18784;BME280;9520;50.954;6.968;2023-01-25T00:33:01;103037.25;;;10.15;44.03
18784;BME280;9520;50.954;6.968;2023-01-25T00:33:32;103035.53;;;10.16;43.93
18784;BME280;9520;50.954;6.968;2023-01-25T00:33:59;103024.00;;;10.14;44.00
18784;BME280;9520;50.954;6.968;2023-01-25T00:34:44;103032.81;;;10.14;43.94
18784;BME280;9520;50.954;6.968;2023-01-25T00:35:10;103036.41;;;10.16;43.89
18784;BME280;9520;50.954;6.968;2023-01-25T00:35:33;103023.13;;;10.13;44.03
18784;BME280;9520;50.954;6.968;2023-01-25T00:35:56;103036.31;;;10.13;43.85
18784;BME280;9520;50.954;6.968;2023-01-25T00:36:32;103030.13;;;10.13;44.03
18784;BME280;9520;50.954;6.968;2023-01-25T00:36:56;103027.50;;;10.11;43.92
18784;BME280;9520;50.954;6.968;2023-01-25T00:37:22;103038.09;;;10.14;43.99
18784;BME280;9520;50.954;6.968;2023-01-25T00:37:47;103010.41;;;9.97;44.12
18784;BME280;9520;50.954;6.968;2023-01-25T00:38:22;103028.97;;;10.00;44.41
18784;BME280;9520;50.954;6.968;2023-01-25T00:38:46;103022.94;;;10.06;44.09
18784;BME280;9520;50.954;6.968;2023-01-25T00:39:11;103028.28;;;10.09;44.05
18784;BME280;9520;50.954;6.968;2023-01-25T00:39:33;103026.44;;;10.05;44.13
18784;BME280;9520;50.954;6.968;2023-01-25T00:39:56;103022.06;;;10.05;44.11
18784;BME280;9520;50.954;6.968;2023-01-25T00:40:18;103029.06;;;10.05;44.28
18784;BME280;9520;50.954;6.968;2023-01-25T00:40:41;103022.84;;;10.01;44.35
18784;BME280;9520;50.954;6.968;2023-01-25T00:41:03;103021.97;;;10.02;44.25
18784;BME280;9520;50.954;6.968;2023-01-25T00:41:25;103024.53;;;9.99;44.29
18784;BME280;9520;50.954;6.968;2023-01-25T00:41:47;103023.63;;;9.98;44.28
18784;BME280;9520;50.954;6.968;2023-01-25T00:42:09;103022.00;;;10.04;44.23
18784;BME280;9520;50.954;6.968;2023-01-25T00:42:31;103018.56;;;10.06;44.32
18784;BME280;9520;50.954;6.968;2023-01-25T00:42:54;103030.81;;;10.04;44.22
18784;BME280;9520;50.954;6.968;2023-01-25T00:43:16;103024.75;;;10.08;44.30
18784;BME280;9520;50.954;6.968;2023-01-25T00:43:38;103026.44;;;10.05;44.25
18784;BME280;9520;50.954;6.968;2023-01-25T00:43:59;103023.69;;;10.00;44.19
18784;BME280;9520;50.954;6.968;2023-01-25T00:44:22;103019.22;;;9.97;44.25
18784;BME280;9520;50.954;6.968;2023-01-25T00:44:45;103012.19;;;9.98;44.15
18784;BME280;9520;50.954;6.968;2023-01-25T00:45:09;103020.22;;;10.03;44.27
18784;BME280;9520;50.954;6.968;2023-01-25T00:45:31;103015.00;;;10.04;44.28
18784;BME280;9520;50.954;6.968;2023-01-25T00:45:59;103017.75;;;10.09;43.95
18784;BME280;9520;50.954;6.968;2023-01-25T00:46:21;103019.53;;;10.10;44.05
18784;BME280;9520;50.954;6.968;2023-01-25T00:46:43;103012.41;;;10.07;44.07
18784;BME280;9520;50.954;6.968;2023-01-25T00:47:06;103022.22;;;10.11;43.99
18784;BME280;9520;50.954;6.968;2023-01-25T00:47:28;103019.63;;;10.14;44.05
18784;BME280;9520;50.954;6.968;2023-01-25T00:47:54;103013.38;;;10.09;44.05
18784;BME280;9520;50.954;6.968;2023-01-25T00:48:16;103014.22;;;10.08;44.05
18784;BME280;9520;50.954;6.968;2023-01-25T00:48:38;103020.38;;;10.09;43.97
18784;BME280;9520;50.954;6.968;2023-01-25T00:49:00;103021.22;;;10.08;43.82
18784;BME280;9520;50.954;6.968;2023-01-25T00:49:24;103016.84;;;10.08;43.99
18784;BME280;9520;50.954;6.968;2023-01-25T00:49:49;103013.03;;;9.97;44.06
18784;BME280;9520;50.954;6.968;2023-01-25T00:50:11;103013.81;;;9.93;44.04
18784;BME280;9520;50.954;6.968;2023-01-25T00:50:35;103023.56;;;9.95;44.14
18784;BME280;9520;50.954;6.968;2023-01-25T00:50:59;103015.66;;;9.95;44.17
18784;BME280;9520;50.954;6.968;2023-01-25T00:51:21;102997.09;;;9.91;44.28
18784;BME280;9520;50.954;6.968;2023-01-25T00:51:43;103014.94;;;10.01;44.09
18784;BME280;9520;50.954;6.968;2023-01-25T00:52:06;103015.78;;;10.02;44.12
18784;BME280;9520;50.954;6.968;2023-01-25T00:52:29;103013.19;;;10.03;44.13
18784;BME280;9520;50.954;6.968;2023-01-25T00:52:51;103010.50;;;10.00;44.12
18784;BME280;9520;50.954;6.968;2023-01-25T00:53:15;103013.16;;;10.02;44.25
18784;BME280;9520;50.954;6.968;2023-01-25T00:53:39;103013.19;;;10.03;44.32
18784;BME280;9520;50.954;6.968;2023-01-25T00:54:00;103009.66;;;10.01;44.21
18784;BME280;9520;50.954;6.968;2023-01-25T00:54:22;103006.06;;;9.99;44.01
18784;BME280;9520;50.954;6.968;2023-01-25T00:54:45;103008.81;;;10.04;44.01
18784;BME280;9520;50.954;6.968;2023-01-25T00:55:09;103006.19;;;10.04;44.09
18784;BME280;9520;50.954;6.968;2023-01-25T00:55:31;102998.16;;;9.99;43.94
18784;BME280;9520;50.954;6.968;2023-01-25T00:55:53;103007.09;;;10.04;43.89
18784;BME280;9520;50.954;6.968;2023-01-25T00:56:15;103009.75;;;10.06;43.85
18784;BME280;9520;50.954;6.968;2023-01-25T00:56:37;103001.84;;;10.06;43.92
18784;BME280;9520;50.954;6.968;2023-01-25T00:57:00;102988.41;;;9.96;43.86
18784;BME280;9520;50.954;6.968;2023-01-25T00:57:22;103011.50;;;10.05;43.99
18784;BME280;9520;50.954;6.968;2023-01-25T00:57:44;103004.50;;;10.07;43.85
18784;BME280;9520;50.954;6.968;2023-01-25T00:58:06;103005.38;;;10.06;43.86
18784;BME280;9520;50.954;6.968;2023-01-25T00:58:30;102998.28;;;10.04;43.88
18784;BME280;9520;50.954;6.968;2023-01-25T00:58:52;103005.28;;;10.03;43.91
18784;BME280;9520;50.954;6.968;2023-01-25T00:59:14;103002.59;;;10.02;43.87
18784;BME280;9520;50.954;6.968;2023-01-25T00:59:36;103008.78;;;10.02;43.95
18784;BME280;9520;50.954;6.968;2023-01-25T00:59:58;103006.22;;;10.05;43.88
18784;BME280;9520;50.954;6.968;2023-01-25T01:00:21;103008.03;;;10.06;43.92
18784;BME280;9520;50.954;6.968;2023-01-25T01:00:42;103002.75;;;10.06;43.83
18784;BME280;9520;50.954;6.968;2023-01-25T01:01:04;103002.75;;;10.06;43.97
18784;BME280;9520;50.954;6.968;2023-01-25T01:01:26;103006.28;;;10.08;44.15
18784;BME280;9520;50.954;6.968;2023-01-25T01:01:49;103001.91;;;10.09;44.06
18784;BME280;9520;50.954;6.968;2023-01-25T01:02:11;103001.91;;;10.09;44.05
18784;BME280;9520;50.954;6.968;2023-01-25T01:02:34;102990.31;;;10.02;44.13
18784;BME280;9520;50.954;6.968;2023-01-25T01:02:56;102996.66;;;10.09;44.00
18784;BME280;9520;50.954;6.968;2023-01-25T01:03:18;103002.75;;;10.06;44.26
18784;BME280;9520;50.954;6.968;2023-01-25T01:03:40;103000.91;;;10.04;44.28
18784;BME280;9520;50.954;6.968;2023-01-25T01:04:02;102995.59;;;10.02;44.27
18784;BME280;9520;50.954;6.968;2023-01-25T01:04:27;103001.88;;;10.07;44.26
18784;BME280;9520;50.954;6.968;2023-01-25T01:04:48;103001.81;;;10.04;44.36
18784;BME280;9520;50.954;6.968;2023-01-25T01:05:10;103000.88;;;10.02;44.44
18784;BME280;9520;50.954;6.968;2023-01-25T01:05:34;103004.44;;;10.04;44.41
18784;BME280;9520;50.954;6.968;2023-01-25T01:06:00;103007.09;;;10.04;44.22
18784;BME280;9520;50.954;6.968;2023-01-25T01:06:22;103002.66;;;10.03;44.45
18784;BME280;9520;50.954;6.968;2023-01-25T01:06:46;103006.19;;;10.04;44.40
18784;BME280;9520;50.954;6.968;2023-01-25T01:07:10;102995.56;;;10.01;44.60
18784;BME280;9520;50.954;6.968;2023-01-25T01:07:32;103002.69;;;10.05;44.42
18784;BME280;9520;50.954;6.968;2023-01-25T01:07:55;103002.59;;;10.02;44.25
18784;BME280;9520;50.954;6.968;2023-01-25T01:08:17;102990.25;;;9.99;44.29
18784;BME280;9520;50.954;6.968;2023-01-25T01:08:40;102992.03;;;10.00;44.40
18784;BME280;9520;50.954;6.968;2023-01-25T01:09:03;103002.75;;;10.08;44.39
18784;BME280;9520;50.954;6.968;2023-01-25T01:09:26;103001.84;;;10.06;44.27
18784;BME280;9520;50.954;6.968;2023-01-25T01:09:49;102996.59;;;10.06;44.16
18784;BME280;9520;50.954;6.968;2023-01-25T01:10:11;103000.06;;;10.05;44.12
18784;BME280;9520;50.954;6.968;2023-01-25T01:10:33;103000.03;;;10.03;44.11
18784;BME280;9520;50.954;6.968;2023-01-25T01:10:58;103003.59;;;10.05;44.07
18784;BME280;9520;50.954;6.968;2023-01-25T01:11:22;102997.47;;;10.06;44.22
18784;BME280;9520;50.954;6.968;2023-01-25T01:11:44;102987.69;;;10.02;44.22
18784;BME280;9520;50.954;6.968;2023-01-25T01:12:07;102994.84;;;10.08;44.24
18784;BME280;9520;50.954;6.968;2023-01-25T01:12:30;103001.88;;;10.07;44.32
18784;BME280;9520;50.954;6.968;2023-01-25T01:12:52;103000.06;;;10.05;44.32
18784;BME280;9520;50.954;6.968;2023-01-25T01:13:14;103000.97;;;10.05;44.27
18784;BME280;9520;50.954;6.968;2023-01-25T01:13:36;103001.81;;;10.04;44.31
18784;BME280;9520;50.954;6.968;2023-01-25T01:13:58;102999.16;;;10.04;44.35
18784;BME280;9520;50.954;6.968;2023-01-25T01:14:24;103005.34;;;10.05;44.20
18784;BME280;9520;50.954;6.968;2023-01-25T01:14:46;102998.28;;;10.04;44.13
18784;BME280;9520;50.954;6.968;2023-01-25T01:15:08;102999.97;;;10.00;44.33
18784;BME280;9520;50.954;6.968;2023-01-25T01:16:12;102998.16;;;9.99;44.53
18784;BME280;9520;50.954;6.968;2023-01-25T01:16:35;102996.50;;;10.03;44.45
18784;BME280;9520;50.954;6.968;2023-01-25T01:16:57;102982.97;;;9.89;44.57
18784;BME280;9520;50.954;6.968;2023-01-25T01:17:19;102988.47;;;9.98;44.54
18784;BME280;9520;50.954;6.968;2023-01-25T01:17:41;103006.22;;;10.05;44.45
18784;BME280;9520;50.954;6.968;2023-01-25T01:18:05;103000.03;;;10.03;44.34
18784;BME280;9520;50.954;6.968;2023-01-25T01:18:27;102992.00;;;9.98;44.34
18784;BME280;9520;50.954;6.968;2023-01-25T01:18:49;103004.50;;;10.07;44.35
18784;BME280;9520;50.954;6.968;2023-01-25T01:19:13;102952.94;;;9.82;44.31
18784;BME280;9520;50.954;6.968;2023-01-25T01:19:34;103002.84;;;10.11;44.43
18784;BME280;9520;50.954;6.968;2023-01-25T01:19:57;102991.31;;;10.07;44.22
18784;BME280;9520;50.954;6.968;2023-01-25T01:20:19;103003.66;;;10.08;44.32
18784;BME280;9520;50.954;6.968;2023-01-25T01:20:47;102998.44;;;10.10;44.29
18784;BME280;9520;50.954;6.968;2023-01-25T01:21:09;103002.88;;;10.12;44.31
18784;BME280;9520;50.954;6.968;2023-01-25T01:21:31;102993.13;;;10.08;44.34
18784;BME280;9520;50.954;6.968;2023-01-25T01:21:55;103003.63;;;10.07;44.17
18784;BME280;9520;50.954;6.968;2023-01-25T01:22:16;102988.69;;;10.07;44.16
18784;BME280;9520;50.954;6.968;2023-01-25T01:22:38;102997.50;;;10.08;44.14
18784;BME280;9520;50.954;6.968;2023-01-25T01:23:00;103000.19;;;10.09;44.44
18784;BME280;9520;50.954;6.968;2023-01-25T01:23:21;103000.19;;;10.09;44.27
18784;BME280;9520;50.954;6.968;2023-01-25T01:23:44;102998.38;;;10.08;44.46
18784;BME280;9520;50.954;6.968;2023-01-25T01:24:07;102976.13;;;9.95;44.36
18784;BME280;9520;50.954;6.968;2023-01-25T01:24:29;102999.38;;;10.13;44.40
18784;BME280;9520;50.954;6.968;2023-01-25T01:24:52;103007.28;;;10.13;44.45
18784;BME280;9520;50.954;6.968;2023-01-25T01:25:14;103002.91;;;10.14;44.34
18784;BME280;9520;50.954;6.968;2023-01-25T01:25:35;102958.31;;;9.87;44.32
18784;BME280;9520;50.954;6.968;2023-01-25T01:25:58;103002.81;;;10.09;44.48
18784;BME280;9520;50.954;6.968;2023-01-25T01:26:20;103001.69;;;10.00;44.52
18784;BME280;9520;50.954;6.968;2023-01-25T01:26:43;102998.28;;;10.04;44.50
18784;BME280;9520;50.954;6.968;2023-01-25T01:27:05;103003.59;;;10.05;44.54
18784;BME280;9520;50.954;6.968;2023-01-25T01:27:26;102990.31;;;10.01;44.42
18784;BME280;9520;50.954;6.968;2023-01-25T01:27:48;103001.03;;;10.08;44.43
18784;BME280;9520;50.954;6.968;2023-01-25T01:28:11;103007.19;;;10.09;44.48
18784;BME280;9520;50.954;6.968;2023-01-25T01:28:34;102979.66;;;9.96;44.44
18784;BME280;9520;50.954;6.968;2023-01-25T01:28:57;103002.03;;;10.13;44.29
18784;BME280;9520;50.954;6.968;2023-01-25T01:29:19;102996.75;;;10.13;44.27
18784;BME280;9520;50.954;6.968;2023-01-25T01:29:42;102990.44;;;10.07;44.24
18784;BME280;9520;50.954;6.968;2023-01-25T01:30:05;102997.53;;;10.09;44.39
18784;BME280;9520;50.954;6.968;2023-01-25T01:30:27;102997.47;;;10.06;44.32
18784;BME280;9520;50.954;6.968;2023-01-25T01:30:49;102992.03;;;10.00;44.39
18784;BME280;9520;50.954;6.968;2023-01-25T01:31:14;102995.84;;;10.11;44.36
18784;BME280;9520;50.954;6.968;2023-01-25T01:31:40;102997.22;;;9.97;44.54
18784;BME280;9520;50.954;6.968;2023-01-25T01:32:22;103001.69;;;10.00;44.57
18784;BME280;9520;50.954;6.968;2023-01-25T01:32:45;103006.97;;;10.00;44.66
18784;BME280;9520;50.954;6.968;2023-01-25T01:33:07;103005.22;;;10.00;44.49
18784;BME280;9520;50.954;6.968;2023-01-25T01:33:29;103007.94;;;10.03;44.53
18784;BME280;9520;50.954;6.968;2023-01-25T01:33:52;102981.22;;;9.89;44.56
18784;BME280;9520;50.954;6.968;2023-01-25T01:34:15;102999.97;;;10.00;44.65
18784;BME280;9520;50.954;6.968;2023-01-25T01:34:38;103003.50;;;10.02;44.59
18784;BME280;9520;50.954;6.968;2023-01-25T01:35:00;102999.09;;;10.01;44.67
18784;BME280;9520;50.954;6.968;2023-01-25T01:35:22;103005.19;;;9.98;44.69
18784;BME280;9520;50.954;6.968;2023-01-25T01:35:45;103001.69;;;10.00;44.60
18784;BME280;9520;50.954;6.968;2023-01-25T01:36:09;103006.88;;;9.96;44.52
18784;BME280;9520;50.954;6.968;2023-01-25T01:36:31;103002.59;;;10.00;44.60
18784;BME280;9520;50.954;6.968;2023-01-25T01:36:55;103004.22;;;9.95;44.55
18784;BME280;9520;50.954;6.968;2023-01-25T01:37:17;102999.84;;;9.95;44.50
18784;BME280;9520;50.954;6.968;2023-01-25T01:37:41;102999.91;;;9.98;44.67
18784;BME280;9520;50.954;6.968;2023-01-25T01:38:04;103002.53;;;9.98;44.50
18784;BME280;9520;50.954;6.968;2023-01-25T01:38:26;103006.00;;;9.96;44.53
18784;BME280;9520;50.954;6.968;2023-01-25T01:38:48;102996.31;;;9.95;44.45
18784;BME280;9520;50.954;6.968;2023-01-25T01:39:09;103004.34;;;10.00;44.48
18784;BME280;9520;50.954;6.968;2023-01-25T01:39:32;103009.75;;;10.06;44.53
18784;BME280;9520;50.954;6.968;2023-01-25T01:39:54;103007.13;;;10.06;44.49
18784;BME280;9520;50.954;6.968;2023-01-25T01:40:16;103007.13;;;10.06;44.49
18784;BME280;9520;50.954;6.968;2023-01-25T01:40:43;103002.75;;;10.06;44.44
18784;BME280;9520;50.954;6.968;2023-01-25T01:41:06;102993.75;;;9.98;44.48
18784;BME280;9520;50.954;6.968;2023-01-25T01:41:28;103001.84;;;10.06;44.51
18784;BME280;9520;50.954;6.968;2023-01-25T01:41:52;102991.03;;;9.95;44.57
18784;BME280;9520;50.954;6.968;2023-01-25T01:42:14;103010.66;;;10.06;44.52
18784;BME280;9520;50.954;6.968;2023-01-25T01:42:57;103004.59;;;10.10;44.45
18784;BME280;9520;50.954;6.968;2023-01-25T01:43:21;103009.78;;;10.07;44.52
18784;BME280;9520;50.954;6.968;2023-01-25T01:43:45;103009.78;;;10.07;44.52
18784;BME280;9520;50.954;6.968;2023-01-25T01:44:14;103008.09;;;10.09;44.45
18784;BME280;9520;50.954;6.968;2023-01-25T01:44:43;103005.25;;;10.02;44.53
18784;BME280;9520;50.954;6.968;2023-01-25T01:46:03;102999.91;;;9.98;44.73
18784;BME280;9520;50.954;6.968;2023-01-25T01:46:32;103013.94;;;9.97;44.67
18784;BME280;9520;50.954;6.968;2023-01-25T01:47:01;103015.03;;;10.06;44.58
18784;BME280;9520;50.954;6.968;2023-01-25T01:47:28;103006.22;;;10.05;44.66
18784;BME280;9520;50.954;6.968;2023-01-25T01:47:55;103005.38;;;10.06;44.56
18784;BME280;9520;50.954;6.968;2023-01-25T01:48:20;103004.50;;;10.06;44.68
18784;BME280;9520;50.954;6.968;2023-01-25T01:48:47;103003.59;;;10.05;44.51
18784;BME280;9520;50.954;6.968;2023-01-25T01:49:15;103007.09;;;10.04;44.53
18784;BME280;9520;50.954;6.968;2023-01-25T01:49:38;103000.97;;;10.05;44.56
18784;BME280;9520;50.954;6.968;2023-01-25T01:50:17;103008.81;;;10.04;44.54
18784;BME280;9520;50.954;6.968;2023-01-25T01:50:41;103006.06;;;9.99;44.66
18784;BME280;9520;50.954;6.968;2023-01-25T01:51:15;103006.13;;;10.02;44.63
18784;BME280;9520;50.954;6.968;2023-01-25T01:51:43;103006.84;;;9.95;44.68
18784;BME280;9520;50.954;6.968;2023-01-25T01:52:17;103002.44;;;9.94;44.81
18784;BME280;9520;50.954;6.968;2023-01-25T01:52:41;103009.34;;;9.89;44.81
18784;BME280;9520;50.954;6.968;2023-01-25T01:53:03;103015.00;;;9.70;45.20
18784;BME280;9520;50.954;6.968;2023-01-25T01:53:25;103006.97;;;9.65;45.30
18784;BME280;9520;50.954;6.968;2023-01-25T01:53:50;103012.31;;;9.68;45.22
18784;BME280;9520;50.954;6.968;2023-01-25T01:54:18;103007.16;;;9.73;45.04
18784;BME280;9520;50.954;6.968;2023-01-25T01:54:45;103005.53;;;9.78;45.02
18784;BME280;9520;50.954;6.968;2023-01-25T01:55:12;102998.44;;;9.75;45.12
18784;BME280;9520;50.954;6.968;2023-01-25T01:55:36;103010.72;;;9.75;45.12
18784;BME280;9520;50.954;6.968;2023-01-25T01:56:00;103008.03;;;9.73;45.07
18784;BME280;9520;50.954;6.968;2023-01-25T01:56:28;103002.63;;;9.67;45.07
18784;BME280;9520;50.954;6.968;2023-01-25T01:56:58;103007.09;;;9.70;45.21
18784;BME280;9520;50.954;6.968;2023-01-25T01:57:24;103003.59;;;9.71;45.05
18784;BME280;9520;50.954;6.968;2023-01-25T01:57:51;103000.91;;;9.69;45.29
18784;BME280;9520;50.954;6.968;2023-01-25T01:58:14;103003.59;;;9.71;45.24
18784;BME280;9520;50.954;6.968;2023-01-25T01:58:36;103004.50;;;9.71;45.24
18784;BME280;9520;50.954;6.968;2023-01-25T01:59:00;103006.31;;;9.74;45.22
18784;BME280;9520;50.954;6.968;2023-01-25T01:59:27;103002.81;;;9.75;45.14
18784;BME280;9520;50.954;6.968;2023-01-25T01:59:52;103001.88;;;9.73;45.08
18784;BME280;9520;50.954;6.968;2023-01-25T02:00:18;103008.94;;;9.74;45.12
18784;BME280;9520;50.954;6.968;2023-01-25T02:00:41;103001.09;;;9.75;45.01
18784;BME280;9520;50.954;6.968;2023-01-25T02:01:04;103011.56;;;9.74;44.93
18784;BME280;9520;50.954;6.968;2023-01-25T02:01:26;103006.31;;;9.74;44.99
18784;BME280;9520;50.954;6.968;2023-01-25T02:01:48;103003.75;;;9.77;44.87
18784;BME280;9520;50.954;6.968;2023-01-25T02:02:12;103002.88;;;9.76;45.00
18784;BME280;9520;50.954;6.968;2023-01-25T02:02:34;103001.88;;;9.71;45.17
18784;BME280;9520;50.954;6.968;2023-01-25T02:02:57;103000.13;;;9.72;44.98
18784;BME280;9520;50.954;6.968;2023-01-25T02:03:19;103008.16;;;9.76;45.05
18784;BME280;9520;50.954;6.968;2023-01-25T02:03:41;103011.63;;;9.75;44.96
18784;BME280;9520;50.954;6.968;2023-01-25T02:04:05;103009.88;;;9.76;44.88
18784;BME280;9520;50.954;6.968;2023-01-25T02:04:29;103014.16;;;9.71;45.05
18784;BME280;9520;50.954;6.968;2023-01-25T02:04:53;103011.41;;;9.66;45.02
18784;BME280;9520;50.954;6.968;2023-01-25T02:05:19;103005.13;;;9.63;45.03
18784;BME280;9520;50.954;6.968;2023-01-25T02:05:47;103002.50;;;9.63;45.25
18784;BME280;9520;50.954;6.968;2023-01-25T02:06:15;103002.59;;;9.66;45.16
18784;BME280;9520;50.954;6.968;2023-01-25T02:06:45;103000.75;;;9.62;45.16
18784;BME280;9520;50.954;6.968;2023-01-25T02:07:14;102991.81;;;9.57;45.08
18784;BME280;9520;50.954;6.968;2023-01-25T02:07:40;102999.84;;;9.63;45.25
18784;BME280;9520;50.954;6.968;2023-01-25T02:08:04;103006.03;;;9.63;45.15